Time;durP1;ratioP1;P1;durP2;ratioP2;P2;SDS_P1;SDS_P2;PMS_P1;PMS_P2;Temp;Humidity;BMP_temperature;BMP_pressure;BME280_temperature;BME280_humidity;BME280_pressure;Samples;Min_cycle;Max_cycle;Signal;HPM_P1;HPM_P2
2021/06/12 00:00:30;;;;;;;7.63;7.03;;;;;;;19.69;79.82;98901.34;5023207;28;103671;-75
2021/06/12 00:02:58;;;;;;;9.38;8.60;;;;;;;19.41;81.51;98905.28;5024680;27;102969;-75
2021/06/12 00:05:26;;;;;;;7.82;7.03;;;;;;;19.42;81.43;98904.28;5023304;28;103102;-75
2021/06/12 00:07:54;;;;;;;9.75;8.93;;;;;;;19.07;83.19;98903.41;5015421;27;103873;-75
2021/06/12 00:10:26;;;;;;;10.00;9.13;;;;;;;19.07;83.35;98900.75;5024692;28;105367;-76
2021/06/12 00:12:53;;;;;;;8.57;7.78;;;;;;;19.27;82.02;98901.34;5025036;27;103173;-76
2021/06/12 00:15:23;;;;;;;7.55;7.05;;;;;;;19.46;81.23;98908.31;5018738;28;102947;-76
2021/06/12 00:17:51;;;;;;;8.45;7.75;;;;;;;19.44;81.20;98913.00;5013788;28;103380;-76
2021/06/12 00:20:22;;;;;;;8.45;7.75;;;;;;;19.29;81.95;98903.84;5018981;27;103695;-76
2021/06/12 00:22:49;;;;;;;10.40;8.73;;;;;;;19.21;82.63;98907.34;5016961;28;103020;-76
2021/06/12 00:25:22;;;;;;;9.00;8.30;;;;;;;19.11;83.24;98904.75;5022039;27;103184;-75
2021/06/12 00:27:50;;;;;;;8.75;8.05;;;;;;;19.24;82.52;98906.16;5016979;28;103910;-75
2021/06/12 00:30:18;;;;;;;8.43;7.72;;;;;;;19.15;82.82;98899.09;5010785;28;104456;-76
2021/06/12 00:32:46;;;;;;;7.70;7.00;;;;;;;19.07;83.66;98906.09;5010496;27;102986;-75
2021/06/12 00:35:14;;;;;;;8.40;7.72;;;;;;;19.15;83.05;98896.41;5023338;27;103456;-76
2021/06/12 00:37:42;;;;;;;7.68;7.07;;;;;;;19.22;82.75;98897.47;5023808;27;104212;-75
2021/06/12 00:40:12;;;;;;;8.23;7.50;;;;;;;19.21;82.12;98895.78;5024172;27;105313;-75
2021/06/12 00:42:42;;;;;;;9.13;8.43;;;;;;;19.10;83.33;98889.72;5019919;27;103694;-76
2021/06/12 00:45:13;;;;;;;8.85;8.05;;;;;;;19.00;83.99;98886.28;5013099;28;103066;-76
2021/06/12 00:47:41;;;;;;;9.73;8.82;;;;;;;19.03;83.42;98891.34;5039400;27;104813;-76
2021/06/12 00:50:10;;;;;;;9.02;8.23;;;;;;;19.01;83.29;98885.31;5018571;27;103743;-75
2021/06/12 00:52:37;;;;;;;9.65;8.85;;;;;;;18.94;84.35;98892.31;5021742;28;103087;-76
2021/06/12 00:55:06;;;;;;;13.05;12.05;;;;;;;18.46;87.51;98886.59;5023292;27;102717;-76
2021/06/12 00:57:34;;;;;;;11.73;10.77;;;;;;;18.65;86.83;98888.25;5022481;28;106106;-76
2021/06/12 01:00:06;;;;;;;13.00;11.68;;;;;;;18.62;86.64;98889.41;5024186;27;103219;-76
2021/06/12 01:02:34;;;;;;;11.20;10.10;;;;;;;18.75;85.19;98886.34;5018646;27;105905;-76
2021/06/12 01:05:01;;;;;;;9.90;9.10;;;;;;;18.78;85.42;98888.69;5022687;28;103238;-76
2021/06/12 01:07:29;;;;;;;10.07;9.18;;;;;;;18.86;85.05;98881.53;5016337;27;103916;-76
2021/06/12 01:09:56;;;;;;;14.18;12.85;;;;;;;18.68;85.68;98883.44;5020628;28;103303;-76
2021/06/12 01:12:29;;;;;;;11.40;10.35;;;;;;;18.79;85.12;98883.19;5024019;27;103042;-76
2021/06/12 01:15:00;;;;;;;12.20;11.20;;;;;;;18.79;85.09;98879.66;5022883;27;103387;-76
2021/06/12 01:17:33;;;;;;;11.75;10.75;;;;;;;18.63;86.10;98885.75;5023475;28;103483;-76
2021/06/12 01:20:25;;;;;;;11.68;10.68;;;;;;;18.64;85.74;98884.75;5023268;28;104334;-76
2021/06/12 01:23:14;;;;;;;15.10;13.63;;;;;;;18.38;87.38;98886.53;5023961;27;103074;-76
2021/06/12 01:25:54;;;;;;;13.40;12.20;;;;;;;18.48;86.64;98881.97;5022352;27;103130;-76
2021/06/12 01:28:49;;;;;;;11.48;10.57;;;;;;;18.62;85.56;98883.22;5017447;27;104244;-76
2021/06/12 01:31:20;;;;;;;14.35;13.05;;;;;;;18.33;87.95;98881.66;5009716;28;105061;-76
2021/06/12 01:33:50;;;;;;;11.80;10.80;;;;;;;18.39;87.20;98880.19;5022391;28;102642;-76
2021/06/12 01:36:17;;;;;;;12.40;11.40;;;;;;;18.43;86.44;98873.53;5015781;28;103514;-76
2021/06/12 01:38:49;;;;;;;12.32;11.15;;;;;;;18.52;86.22;98876.16;5022122;27;103954;-76
2021/06/12 01:41:22;;;;;;;11.32;10.32;;;;;;;18.57;85.46;98870.31;5023211;27;103761;-76
2021/06/12 01:43:51;;;;;;;11.18;10.07;;;;;;;18.60;84.80;98875.38;5023405;27;103324;-76
2021/06/12 01:46:20;;;;;;;9.95;9.15;;;;;;;18.65;84.77;98872.22;5022705;27;103140;-76
2021/06/12 01:48:49;;;;;;;8.43;7.72;;;;;;;18.72;84.54;98874.13;5022767;28;103931;-76
2021/06/12 01:51:18;;;;;;;10.50;9.60;;;;;;;18.73;84.14;98881.13;5012402;27;103713;-76
2021/06/12 01:53:46;;;;;;;10.73;9.65;;;;;;;18.72;84.16;98882.16;5022317;27;102948;-75
2021/06/12 01:56:14;;;;;;;12.07;10.98;;;;;;;18.72;84.13;98879.47;5015774;27;103271;-75
2021/06/12 01:58:44;;;;;;;10.95;10.05;;;;;;;18.71;84.02;98883.13;5021649;27;105326;-76
2021/06/12 02:01:13;;;;;;;12.68;11.48;;;;;;;18.55;85.23;98877.69;5012279;27;104976;-76
2021/06/12 02:03:44;;;;;;;14.05;12.77;;;;;;;18.23;87.36;98882.72;5022577;28;103110;-76
2021/06/12 02:06:14;;;;;;;13.93;12.73;;;;;;;18.17;87.57;98883.34;5023055;27;103335;-76
2021/06/12 02:08:42;;;;;;;12.52;11.43;;;;;;;18.16;87.64;98881.69;5017141;28;103573;-75
2021/06/12 02:11:12;;;;;;;9.82;9.07;;;;;;;18.32;86.52;98887.16;5022710;27;104836;-76
2021/06/12 02:13:41;;;;;;;12.15;11.07;;;;;;;18.45;86.27;98877.72;5022289;27;103729;-76
2021/06/12 02:16:09;;;;;;;9.63;8.82;;;;;;;18.32;86.69;98873.78;5023613;27;103299;-76
2021/06/12 02:18:39;;;;;;;10.02;9.32;;;;;;;18.27;86.82;98876.09;5022138;27;103869;-76
2021/06/12 02:21:08;;;;;;;9.95;9.23;;;;;;;18.30;86.79;98879.28;5012892;28;109184;-75
2021/06/12 02:23:36;;;;;;;11.73;10.63;;;;;;;18.27;86.45;98874.22;5015240;28;102921;-75
2021/06/12 02:26:07;;;;;;;13.10;12.00;;;;;;;18.02;87.70;98884.91;5015314;27;103195;-76
2021/06/12 02:28:36;;;;;;;10.82;10.02;;;;;;;18.04;88.05;98882.91;5019037;28;104073;-76
2021/06/12 02:31:06;;;;;;;13.40;12.20;;;;;;;18.06;87.49;98880.91;5019005;27;103772;-76
2021/06/12 02:33:35;;;;;;;11.82;10.82;;;;;;;18.16;86.90;98871.81;5018123;28;102571;-76
2021/06/12 02:36:04;;;;;;;10.88;9.98;;;;;;;18.18;86.31;98874.34;5019972;27;102746;-76
2021/06/12 02:38:33;;;;;;;11.63;10.63;;;;;;;18.08;87.08;98873.59;5022109;28;104076;-75
2021/06/12 02:41:01;;;;;;;10.65;9.75;;;;;;;18.02;87.77;98875.03;5022436;27;103700;-75
2021/06/12 02:43:28;;;;;;;10.75;9.85;;;;;;;18.12;86.38;98881.16;5022623;27;103200;-76
2021/06/12 02:45:56;;;;;;;7.70;7.00;;;;;;;18.24;84.68;98881.75;5022172;27;102902;-75
2021/06/12 02:48:28;;;;;;;11.18;10.10;;;;;;;18.24;85.39;98887.09;5007308;28;104132;-75
2021/06/12 02:50:57;;;;;;;10.02;9.23;;;;;;;18.18;86.24;98885.03;5011680;27;104222;-75
2021/06/12 02:53:28;;;;;;;9.88;9.05;;;;;;;18.13;86.16;98892.69;5022409;27;102890;-75
2021/06/12 02:56:01;;;;;;;11.52;10.52;;;;;;;18.12;86.02;98893.66;5012492;27;103407;-76
2021/06/12 02:58:29;;;;;;;8.50;7.90;;;;;;;18.17;85.64;98896.72;5013468;28;103932;-76
2021/06/12 03:00:58;;;;;;;9.73;8.93;;;;;;;18.11;85.66;98900.00;5025409;27;103245;-76
2021/06/12 03:03:26;;;;;;;11.10;10.10;;;;;;;18.04;86.34;98896.28;5025942;27;103226;-76
2021/06/12 03:05:57;;;;;;;10.48;9.70;;;;;;;17.94;87.09;98907.88;5025700;28;102794;-76
2021/06/12 03:08:29;;;;;;;10.07;9.27;;;;;;;17.96;86.86;98907.72;5021191;27;103725;-76
2021/06/12 03:11:00;;;;;;;11.80;10.80;;;;;;;17.89;86.96;98907.50;5025331;27;103674;-75
2021/06/12 03:13:29;;;;;;;12.30;11.25;;;;;;;17.74;87.87;98900.97;5024424;28;102857;-75
2021/06/12 03:16:00;;;;;;;12.23;11.07;;;;;;;17.72;88.08;98894.09;5025238;28;103591;-75
2021/06/12 03:18:29;;;;;;;10.05;9.15;;;;;;;17.66;88.83;98895.53;5025199;27;103805;-75
2021/06/12 03:20:57;;;;;;;10.57;9.73;;;;;;;17.71;87.73;98890.59;5021421;27;103103;-75
2021/06/12 03:23:27;;;;;;;10.18;9.30;;;;;;;17.71;88.28;98898.59;5025297;28;103562;-76
2021/06/12 03:25:55;;;;;;;10.52;9.63;;;;;;;17.67;88.03;98897.25;5019447;28;103139;-75
2021/06/12 03:28:25;;;;;;;10.38;9.57;;;;;;;17.63;88.28;98898.53;5011754;28;105241;-76
2021/06/12 03:30:53;;;;;;;11.20;10.30;;;;;;;17.45;89.98;98902.97;5025698;28;103787;-75
2021/06/12 03:33:21;;;;;;;13.80;12.40;;;;;;;17.38;90.27;98901.88;5023045;27;102910;-76
2021/06/12 03:35:49;;;;;;;11.82;10.80;;;;;;;17.45;89.78;98905.63;5020677;28;103188;-75
2021/06/12 03:38:17;;;;;;;14.50;13.20;;;;;;;17.15;92.90;98903.28;5022886;28;103336;-76
2021/06/12 03:40:44;;;;;;;11.55;10.65;;;;;;;17.20;92.80;98907.19;5023877;28;104907;-76
2021/06/12 03:43:14;;;;;;;12.32;11.13;;;;;;;17.24;92.58;98910.38;5025187;27;102899;-75
2021/06/12 03:45:43;;;;;;;10.38;9.57;;;;;;;17.44;90.45;98911.97;5025232;27;102992;-75
2021/06/12 03:48:13;;;;;;;9.25;8.50;;;;;;;17.47;90.44;98911.66;5025016;27;103429;-76
2021/06/12 03:50:42;;;;;;;9.73;8.98;;;;;;;17.58;89.51;98913.31;5024590;27;103725;-75
2021/06/12 03:53:10;;;;;;;10.60;9.70;;;;;;;17.64;88.97;98908.22;5024683;27;103176;-75
2021/06/12 03:55:37;;;;;;;10.00;9.15;;;;;;;17.73;87.94;98906.47;5025132;27;102940;-75
2021/06/12 03:58:05;;;;;;;11.50;10.40;;;;;;;17.67;88.62;98915.09;5025006;27;103236;-76
2021/06/12 04:00:32;;;;;;;10.63;9.63;;;;;;;17.66;88.62;98916.91;5024680;27;104103;-75
2021/06/12 04:03:01;;;;;;;10.88;10.00;;;;;;;17.61;88.71;98913.03;5023944;27;103036;-81
2021/06/12 04:05:29;;;;;;;12.13;11.13;;;;;;;17.45;90.93;98918.16;5024506;27;103512;-82
2021/06/12 04:07:56;;;;;;;10.93;10.05;;;;;;;17.43;90.60;98912.97;5012195;28;105431;-80
2021/06/12 04:10:24;;;;;;;10.93;10.13;;;;;;;17.51;89.74;98918.41;5022373;27;103741;-81
2021/06/12 04:12:51;;;;;;;8.57;7.88;;;;;;;17.56;89.84;98912.63;5023928;27;103591;-81
2021/06/12 04:15:19;;;;;;;9.90;9.10;;;;;;;17.59;89.71;98910.50;5022371;27;103058;-81
2021/06/12 04:17:49;;;;;;;13.52;12.43;;;;;;;17.49;90.00;98916.88;5023075;27;104423;-81
2021/06/12 04:20:18;;;;;;;10.30;9.50;;;;;;;17.59;90.11;98915.84;5021044;27;103694;-87
2021/06/12 04:22:46;;;;;;;11.05;10.15;;;;;;;17.57;90.19;98912.47;5019692;28;102888;-87
2021/06/12 04:25:13;;;;;;;11.27;9.95;;;;;;;17.64;89.94;98913.56;5014354;28;103128;-86
2021/06/12 04:27:41;;;;;;;13.98;12.85;;;;;;;17.19;93.38;98912.66;5017276;28;103253;-87
2021/06/12 04:30:10;;;;;;;15.00;13.70;;;;;;;17.02;94.64;98926.75;5022247;27;109202;-87
2021/06/12 04:32:37;;;;;;;14.27;12.88;;;;;;;17.02;95.04;98927.59;5013439;28;103140;-86
2021/06/12 04:35:05;;;;;;;11.23;10.23;;;;;;;17.20;94.47;98933.03;5022908;27;103262;-87
2021/06/12 04:37:34;;;;;;;13.45;12.32;;;;;;;17.24;93.56;98937.06;5016043;27;103898;-87
2021/06/12 04:40:01;;;;;;;14.85;13.40;;;;;;;17.35;93.28;98934.22;5010672;28;103814;-87
2021/06/12 04:42:29;;;;;;;11.40;10.50;;;;;;;17.66;91.36;98926.75;5022722;27;102975;-83
2021/06/12 04:44:56;;;;;;;9.45;8.60;;;;;;;17.97;88.48;98917.41;5022886;27;103761;-79
2021/06/12 04:47:24;;;;;;;8.55;7.85;;;;;;;18.19;88.44;98908.94;5016049;27;105603;-79
2021/06/12 04:49:51;;;;;;;8.88;8.18;;;;;;;18.38;87.47;98908.78;5019715;27;103804;-84
2021/06/12 04:52:18;;;;;;;7.97;7.38;;;;;;;18.47;87.29;98917.69;5016243;28;103088;-77
2021/06/12 04:54:47;;;;;;;10.50;9.65;;;;;;;18.34;87.63;98915.44;5022100;27;105670;-83
2021/06/12 04:57:14;;;;;;;13.95;12.75;;;;;;;18.04;89.42;98928.34;5022192;28;104324;-79
2021/06/12 04:59:42;;;;;;;13.65;12.55;;;;;;;18.13;88.89;98930.97;5022456;27;103831;-79
2021/06/12 05:02:09;;;;;;;11.18;10.18;;;;;;;18.36;87.58;98932.16;5009268;27;102880;-78
2021/06/12 05:04:37;;;;;;;12.85;11.65;;;;;;;18.46;86.26;98932.91;5013995;28;103162;-78
2021/06/12 05:07:05;;;;;;;8.85;8.25;;;;;;;18.72;85.40;98930.31;5017946;27;103783;-82
2021/06/12 05:09:32;;;;;;;11.30;10.35;;;;;;;18.72;84.42;98933.00;5015701;27;104516;-80
2021/06/12 05:12:01;;;;;;;11.15;10.15;;;;;;;18.82;84.09;98938.22;5022811;28;103535;-80
2021/06/12 05:14:28;;;;;;;11.32;10.48;;;;;;;18.94;83.90;98932.47;5021585;27;103301;-78
2021/06/12 05:16:57;;;;;;;10.32;9.48;;;;;;;19.16;82.70;98930.22;5020322;28;111093;-77
2021/06/12 05:19:25;;;;;;;12.27;11.27;;;;;;;19.03;82.91;98928.81;5010211;27;104432;-77
2021/06/12 05:21:52;;;;;;;12.73;11.43;;;;;;;19.09;82.81;98933.53;5031054;27;103576;-78
2021/06/12 05:24:20;;;;;;;11.38;10.38;;;;;;;19.28;81.78;98923.59;5018948;28;102976;-77
2021/06/12 05:26:47;;;;;;;10.43;9.52;;;;;;;19.30;81.41;98921.59;5014490;28;105117;-77
2021/06/12 05:29:16;;;;;;;8.85;8.15;;;;;;;19.46;81.05;98927.06;5013077;27;103892;-81
2021/06/12 05:31:43;;;;;;;10.15;9.35;;;;;;;19.45;81.17;98928.06;5020829;28;103926;-81
2021/06/12 05:34:11;;;;;;;12.27;11.10;;;;;;;19.53;80.96;98920.91;5017673;28;103451;-81
2021/06/12 05:36:38;;;;;;;9.80;9.02;;;;;;;19.66;79.99;98925.78;5020065;27;104109;-82
2021/06/12 05:39:06;;;;;;;8.13;7.47;;;;;;;19.84;79.64;98920.31;5015652;28;110351;-80
2021/06/12 05:41:34;;;;;;;8.93;8.02;;;;;;;19.94;79.50;98921.00;5014239;27;102878;-79
2021/06/12 05:44:01;;;;;;;9.90;8.80;;;;;;;19.98;78.81;98917.84;5018405;28;103783;-81
2021/06/12 05:46:30;;;;;;;8.75;7.97;;;;;;;19.96;79.38;98919.84;5021284;28;103302;-80
2021/06/12 05:48:59;;;;;;;9.52;8.68;;;;;;;20.09;78.80;98920.22;5008346;28;111806;-79
2021/06/12 05:51:27;;;;;;;8.40;7.70;;;;;;;20.09;78.79;98924.72;5021461;27;103546;-80
2021/06/12 05:53:54;;;;;;;12.05;10.02;;;;;;;19.84;79.35;98921.16;5008404;28;104978;-80
2021/06/12 05:56:22;;;;;;;11.20;10.30;;;;;;;19.97;79.61;98926.03;5026625;27;105066;-82
2021/06/12 05:58:49;;;;;;;9.60;8.80;;;;;;;20.36;78.09;98926.28;5013100;27;103562;-79
2021/06/12 06:01:17;;;;;;;10.35;9.45;;;;;;;20.22;78.71;98931.28;5017861;28;103309;-79
2021/06/12 06:03:46;;;;;;;9.30;8.40;;;;;;;20.55;78.34;98925.94;5018751;28;103223;-75
2021/06/12 06:06:15;;;;;;;8.18;7.47;;;;;;;20.82;77.55;98928.28;5017822;27;104474;-77
2021/06/12 06:08:42;;;;;;;10.70;9.88;;;;;;;20.83;76.65;98921.91;5007650;28;103829;-78
2021/06/12 06:11:10;;;;;;;12.18;10.05;;;;;;;20.81;75.87;98922.09;5015216;27;102999;-78
2021/06/12 06:13:38;;;;;;;10.05;9.13;;;;;;;20.91;75.90;98921.91;5017801;27;102852;-78
2021/06/12 06:16:06;;;;;;;8.27;7.68;;;;;;;21.05;76.31;98923.88;5013395;28;103580;-78
2021/06/12 06:18:35;;;;;;;10.55;9.63;;;;;;;21.02;75.59;98923.41;5018466;27;104143;-77
2021/06/12 06:21:04;;;;;;;7.72;7.15;;;;;;;21.14;75.19;98920.19;5018806;27;103118;-77
2021/06/12 06:23:32;;;;;;;7.43;6.82;;;;;;;21.33;74.60;98918.97;5012267;28;103272;-77
2021/06/12 06:26:00;;;;;;;11.93;10.88;;;;;;;21.07;75.50;98921.91;5013213;27;105842;-76
2021/06/12 06:28:28;;;;;;;9.18;8.00;;;;;;;21.09;76.02;98919.88;5014141;27;103698;-77
2021/06/12 06:30:56;;;;;;;10.20;9.40;;;;;;;21.28;75.04;98915.94;5006913;28;103455;-76
2021/06/12 06:33:24;;;;;;;8.40;7.40;;;;;;;21.49;74.43;98915.38;5013575;27;103121;-76
2021/06/12 06:35:53;;;;;;;11.15;10.05;;;;;;;21.56;74.02;98916.38;5018177;27;104005;-77
2021/06/12 06:38:22;;;;;;;7.90;7.30;;;;;;;21.79;73.32;98911.84;5020145;27;104114;-76
2021/06/12 06:40:50;;;;;;;9.77;8.85;;;;;;;21.90;73.08;98911.47;5015863;28;102973;-76
2021/06/12 06:43:18;;;;;;;9.43;8.63;;;;;;;22.03;72.35;98909.06;5018381;27;103533;-75
2021/06/12 06:45:47;;;;;;;8.07;7.28;;;;;;;22.12;72.54;98917.91;5018001;28;105166;-76
2021/06/12 06:48:16;;;;;;;9.00;8.30;;;;;;;22.19;71.84;98919.72;5027702;27;104711;-76
2021/06/12 06:50:44;;;;;;;11.25;10.32;;;;;;;22.25;71.41;98924.38;5015636;28;102926;-77
2021/06/12 06:53:12;;;;;;;8.02;7.43;;;;;;;22.16;72.54;98924.59;5017059;27;103059;-77
2021/06/12 06:55:41;;;;;;;9.68;8.65;;;;;;;22.36;71.95;98923.97;5014397;28;104375;-76
2021/06/12 06:58:09;;;;;;;9.65;8.73;;;;;;;22.39;70.96;98918.22;5014587;28;104247;-75
2021/06/12 07:00:36;;;;;;;9.57;8.57;;;;;;;22.51;71.02;98919.44;5020851;28;103362;-75
2021/06/12 07:03:04;;;;;;;8.98;8.18;;;;;;;22.83;70.35;98912.13;5023350;27;103360;-75
2021/06/12 07:05:32;;;;;;;7.70;7.00;;;;;;;23.08;70.18;98916.25;5017306;27;103225;-75
2021/06/12 07:07:59;;;;;;;7.38;6.78;;;;;;;23.14;70.01;98918.19;5020943;28;107532;-75
2021/06/12 07:10:27;;;;;;;6.55;6.03;;;;;;;23.54;68.75;98911.53;5017070;27;103676;-75
2021/06/12 07:13:00;;;;;;;9.57;7.10;;;;;;;23.62;68.72;98908.72;5023852;27;103233;-75
2021/06/12 07:15:28;;;;;;;9.43;8.63;;;;;;;23.43;68.19;98912.84;5023256;28;104118;-75
2021/06/12 07:17:56;;;;;;;8.63;7.82;;;;;;;23.46;69.41;98909.78;5020441;27;103837;-75
2021/06/12 07:20:24;;;;;;;7.18;6.60;;;;;;;23.98;67.95;98914.97;5022188;28;103358;-75
2021/06/12 07:22:52;;;;;;;8.02;7.00;;;;;;;24.19;66.59;98922.28;5023933;27;103182;-75
2021/06/12 07:25:20;;;;;;;9.50;8.70;;;;;;;23.97;66.75;98917.88;5022559;27;104203;-75
2021/06/12 07:27:47;;;;;;;9.82;9.02;;;;;;;23.20;68.67;98922.84;5019529;27;104363;-76
2021/06/12 07:30:18;;;;;;;7.72;7.03;;;;;;;24.14;67.56;98913.94;5013915;27;102847;-77
2021/06/12 07:32:46;;;;;;;7.65;7.05;;;;;;;24.65;65.44;98922.72;5023820;27;103018;-75
2021/06/12 07:35:13;;;;;;;8.25;7.55;;;;;;;24.75;63.63;98924.06;5023442;27;103914;-73
2021/06/12 07:37:41;;;;;;;8.70;7.93;;;;;;;24.38;64.49;98916.25;5022429;28;103394;-73
2021/06/12 07:40:09;;;;;;;8.77;7.97;;;;;;;25.16;63.77;98916.06;5023768;27;102946;-73
2021/06/12 07:42:37;;;;;;;8.90;8.10;;;;;;;25.49;61.73;98918.97;5024184;27;103161;-73
2021/06/12 07:45:06;;;;;;;9.18;8.23;;;;;;;25.55;62.11;98920.88;5014612;28;103882;-76
2021/06/12 07:47:35;;;;;;;8.88;8.02;;;;;;;24.61;64.27;98922.28;5015842;28;104156;-75
2021/06/12 07:50:03;;;;;;;8.77;7.78;;;;;;;25.25;64.26;98928.41;5017283;28;103010;-74
2021/06/12 07:52:31;;;;;;;7.63;7.03;;;;;;;25.36;63.65;98927.00;5021072;28;103378;-74
2021/06/12 07:54:58;;;;;;;6.97;6.35;;;;;;;25.68;63.52;98915.56;5020487;28;103899;-75
2021/06/12 07:57:26;;;;;;;8.63;7.50;;;;;;;24.91;63.09;98922.97;5017250;28;106473;-73
2021/06/12 07:59:54;;;;;;;8.45;7.70;;;;;;;25.34;61.76;98918.25;5022107;28;102680;-75
2021/06/12 08:02:21;;;;;;;7.45;6.75;;;;;;;26.13;61.78;98918.63;5009945;28;103357;-74
2021/06/12 08:04:51;;;;;;;5.65;5.15;;;;;;;27.14;59.39;98912.88;5012116;27;108241;-77
2021/06/12 08:07:19;;;;;;;7.97;7.28;;;;;;;26.16;59.62;98916.34;5011825;28;103758;-78
2021/06/12 08:09:49;;;;;;;7.38;6.15;;;;;;;26.91;61.28;98915.19;5019041;28;103195;-75
2021/06/12 08:12:17;;;;;;;8.25;7.35;;;;;;;26.49;58.89;98909.13;5023284;27;102990;-73
2021/06/12 08:14:45;;;;;;;8.70;7.80;;;;;;;26.42;59.89;98918.28;5017998;27;104480;-74
2021/06/12 08:17:13;;;;;;;7.82;7.13;;;;;;;26.68;59.91;98915.59;5018806;28;105236;-74
2021/06/12 08:19:40;;;;;;;6.80;6.30;;;;;;;27.29;58.87;98915.34;5022671;27;102815;-74
2021/06/12 08:22:11;;;;;;;8.68;7.95;;;;;;;26.79;58.39;98923.13;5019908;27;103018;-72
2021/06/12 08:24:38;;;;;;;7.28;6.68;;;;;;;27.43;59.05;98923.28;5013382;28;104550;-74
2021/06/12 08:27:07;;;;;;;6.35;5.72;;;;;;;26.75;59.64;98929.16;5013211;27;111972;-71
2021/06/12 08:29:35;;;;;;;7.15;6.13;;;;;;;26.47;59.47;98926.63;5017994;28;103225;-77
2021/06/12 08:32:05;;;;;;;7.05;6.43;;;;;;;26.42;59.75;98934.53;5015056;28;103146;-74
2021/06/12 08:34:32;;;;;;;6.57;5.90;;;;;;;26.35;61.76;98933.69;5018024;28;103137;-73
2021/06/12 08:37:02;;;;;;;6.07;5.57;;;;;;;26.18;60.63;98940.53;5020584;28;104176;-74
2021/06/12 08:39:31;;;;;;;6.70;6.10;;;;;;;26.63;60.82;98941.66;5018726;27;102991;-73
2021/06/12 08:42:00;;;;;;;6.65;5.90;;;;;;;26.86;59.88;98942.91;5022049;28;102997;-81
2021/06/12 08:44:29;;;;;;;7.20;6.25;;;;;;;27.47;58.74;98940.81;5022376;28;103449;-73
2021/06/12 08:46:56;;;;;;;6.50;5.95;;;;;;;26.87;59.83;98944.59;5008771;27;103661;-71
2021/06/12 08:49:24;;;;;;;5.80;5.13;;;;;;;27.80;57.86;98940.69;5022329;28;102724;-75
2021/06/12 08:51:52;;;;;;;5.68;5.18;;;;;;;27.79;58.10;98939.00;5022593;27;102950;-75
2021/06/12 08:54:23;;;;;;;5.68;5.03;;;;;;;26.96;60.47;98943.34;5017191;27;104754;-75
2021/06/12 08:56:52;;;;;;;5.28;4.88;;;;;;;27.46;60.36;98932.84;5005343;27;103780;-75
2021/06/12 08:59:20;;;;;;;4.43;4.13;;;;;;;27.44;59.09;98930.38;5020532;27;102544;-74
2021/06/12 09:01:48;;;;;;;4.47;4.07;;;;;;;28.18;58.27;98927.97;5020948;28;103748;-74
2021/06/12 09:04:27;;;;;;;4.22;3.83;;;;;;;27.00;60.33;98932.94;5021825;28;105017;-74
2021/06/12 09:07:24;;;;;;;4.97;3.80;;;;;;;26.52;60.99;98940.38;5021939;27;105120;-74
2021/06/12 09:09:54;;;;;;;3.97;3.67;;;;;;;27.09;59.99;98931.63;5016563;28;102611;-80
2021/06/12 09:12:43;;;;;;;7.18;4.30;;;;;;;28.09;57.18;98925.75;5020885;28;102797;-73
2021/06/12 09:15:15;;;;;;;3.58;3.28;;;;;;;26.46;60.30;98938.50;5014926;28;104218;-72
2021/06/12 09:17:45;;;;;;;3.95;3.55;;;;;;;26.61;60.63;98941.84;5015538;28;103794;-73
2021/06/12 09:20:16;;;;;;;3.58;2.95;;;;;;;26.95;61.62;98936.25;5009277;28;103214;-72
2021/06/12 09:22:44;;;;;;;5.00;3.03;;;;;;;26.94;61.16;98945.44;5009747;28;103157;-71
2021/06/12 09:25:12;;;;;;;3.50;3.15;;;;;;;27.31;60.03;98943.09;5021880;27;105260;-72
2021/06/12 09:27:40;;;;;;;4.40;3.38;;;;;;;26.81;60.44;98944.59;5018740;27;104485;-72
2021/06/12 09:30:09;;;;;;;4.85;3.00;;;;;;;27.24;60.83;98939.56;5019979;27;103249;-72
2021/06/12 09:32:45;;;;;;;4.88;2.80;;;;;;;28.36;58.67;98934.56;5021586;27;103266;-72
2021/06/12 09:35:13;;;;;;;4.22;2.90;;;;;;;29.14;54.14;98933.97;5013908;28;105222;-72
2021/06/12 09:37:41;;;;;;;4.78;3.50;;;;;;;28.32;56.32;98934.19;5009193;27;105289;-72
2021/06/12 09:40:11;;;;;;;3.03;2.60;;;;;;;28.70;56.17;98928.72;5006285;28;103164;-74
2021/06/12 09:42:45;;;;;;;3.67;3.17;;;;;;;29.48;53.01;98929.88;5017767;27;103165;-73
2021/06/12 09:45:14;;;;;;;13.48;4.20;;;;;;;29.40;53.86;98922.00;5010795;28;105734;-74
2021/06/12 09:47:42;;;;;;;4.72;3.28;;;;;;;28.97;54.87;98927.44;5020669;28;103763;-75
2021/06/12 09:50:12;;;;;;;4.43;3.10;;;;;;;29.47;54.23;98927.41;5014084;27;102633;-79
2021/06/12 09:52:45;;;;;;;4.45;3.50;;;;;;;29.33;54.01;98930.25;5022846;28;103021;-75
2021/06/12 09:55:25;;;;;;;4.75;2.97;;;;;;;28.24;56.75;98917.31;5022603;27;104969;-76
2021/06/12 09:57:57;;;;;;;5.07;3.10;;;;;;;28.71;56.60;98912.19;5011086;28;105846;-75
2021/06/12 10:00:30;;;;;;;3.30;3.00;;;;;;;28.65;54.28;98906.81;5023048;28;104224;-75
2021/06/12 10:02:58;;;;;;;4.22;2.90;;;;;;;28.27;53.83;98917.69;5020390;27;103220;-75
2021/06/12 10:05:26;;;;;;;4.18;3.00;;;;;;;29.01;53.95;98908.78;5017408;28;105001;-75
2021/06/12 10:07:55;;;;;;;5.72;3.33;;;;;;;29.21;51.81;98909.44;5022718;27;103695;-74
2021/06/12 10:10:24;;;;;;;4.18;3.00;;;;;;;28.24;55.04;98903.72;5022669;27;102563;-74
2021/06/12 10:12:54;;;;;;;5.78;2.55;;;;;;;29.24;51.92;98900.84;5022863;27;103688;-74
2021/06/12 10:15:23;;;;;;;3.53;2.60;;;;;;;29.53;48.43;98899.28;5015860;28;104399;-75
2021/06/12 10:17:52;;;;;;;2.42;2.00;;;;;;;29.58;48.54;98904.88;5014679;28;103711;-76
2021/06/12 10:20:23;;;;;;;5.45;2.72;;;;;;;30.34;48.30;98903.25;5019204;28;102904;-74
2021/06/12 10:22:52;;;;;;;2.72;2.28;;;;;;;30.11;48.09;98908.59;5022621;27;102984;-74
2021/06/12 10:25:21;;;;;;;4.55;2.40;;;;;;;30.61;48.10;98902.84;5012586;27;103731;-74
2021/06/12 10:27:49;;;;;;;8.55;3.60;;;;;;;30.19;48.82;98910.16;5014995;28;103690;-75
2021/06/12 10:30:20;;;;;;;14.15;3.78;;;;;;;30.01;49.73;98902.84;5014182;28;102605;-74
2021/06/12 10:32:51;;;;;;;17.23;4.18;;;;;;;29.99;51.45;98907.72;5023180;27;102951;-75
2021/06/12 10:35:21;;;;;;;16.77;4.55;;;;;;;30.54;51.02;98905.66;5012069;27;104473;-74
2021/06/12 10:37:58;;;;;;;9.07;3.22;;;;;;;30.78;50.52;98906.53;5021176;27;104096;-74
2021/06/12 10:40:42;;;;;;;2.88;2.60;;;;;;;30.35;49.11;98904.88;5020821;28;103328;-75
2021/06/12 10:43:12;;;;;;;2.45;2.25;;;;;;;30.37;49.99;98919.13;5022310;27;102893;-74
2021/06/12 10:45:41;;;;;;;2.22;2.03;;;;;;;30.27;49.00;98907.09;5018245;28;103866;-75
2021/06/12 10:48:30;;;;;;;2.92;2.67;;;;;;;29.12;51.04;98914.31;5007267;28;103710;-73
2021/06/12 10:50:57;;;;;;;5.50;2.92;;;;;;;28.81;52.46;98900.81;5011160;28;103075;-75
2021/06/12 10:53:33;;;;;;;3.67;2.70;;;;;;;29.62;49.66;98890.56;5017865;27;103989;-74
2021/06/12 10:56:02;;;;;;;5.93;2.65;;;;;;;28.10;53.35;98895.66;5014600;28;104999;-74
2021/06/12 10:58:46;;;;;;;4.15;2.78;;;;;;;29.72;51.65;98887.31;5016886;28;104184;-74
2021/06/12 11:01:21;;;;;;;4.00;3.38;;;;;;;28.00;53.61;98889.84;5022928;28;103223;-74
2021/06/12 11:04:03;;;;;;;5.50;3.50;;;;;;;29.42;52.47;98881.00;5021750;28;103491;-74
2021/06/12 11:06:44;;;;;;;3.58;2.92;;;;;;;28.86;51.52;98886.56;5020237;27;104454;-78
2021/06/12 11:09:40;;;;;;;3.55;2.90;;;;;;;28.94;51.68;98887.09;5015973;28;104463;-75
2021/06/12 11:12:38;;;;;;;4.03;2.47;;;;;;;29.40;48.73;98878.47;5019992;28;103043;-74
2021/06/12 11:15:09;;;;;;;3.95;2.55;;;;;;;30.22;49.45;98882.44;4978088;28;102874;-74
2021/06/12 11:17:38;;;;;;;4.30;2.70;;;;;;;28.44;51.00;98878.06;4993542;28;103890;-74
2021/06/12 11:20:26;;;;;;;2.53;2.33;;;;;;;29.53;49.81;98878.31;5020380;27;104286;-71
2021/06/12 11:22:56;;;;;;;6.20;3.00;;;;;;;30.43;44.20;98880.03;5015197;28;102827;-72
2021/06/12 11:26:00;;;;;;;3.42;2.05;;;;;;;29.46;46.27;98872.13;5025048;27;103045;-72
2021/06/12 11:28:32;;;;;;;2.35;2.13;;;;;;;28.97;47.91;98881.19;5022865;28;103796;-72
2021/06/12 11:31:26;;;;;;;3.78;2.50;;;;;;;29.31;48.07;98877.94;5024029;28;103242;-72